新東京国際空港の過去48時間の天気

新東京国際空港 (Tokyo/New Tokyo Intl)

現在時刻: 6/19 15:04 JST (6/19 06:04 UTC) 以下の時間は現地時間です。

過去48時間のMETAR気象情報
時間 風向 風速(m/s) 視程 気温(℃) 湿度(%) 気圧(hPa) 天気現象
19 14:30 3 10km以上 28 48 1004
19 14:00 西南西 3 10km以上 27 54 1005
19 13:30 4 10km以上 27 51 1005
19 13:00 南西 3 10km以上 27 54 1005
19 12:30 南西 4 10km以上 27 54 1006
19 12:00 南南西 4 10km以上 27 58 1006
19 11:30 南南西 4 10km以上 26 58 1007
19 11:00 南西 3 10km以上 26 65 1007
19 10:30 西南西 3 10km以上 26 70 1007
19 10:00 南南西 3 10km以上 26 65 1007
19 09:30 南南西 3 10km以上 25 69 1008
19 09:00 3 10km以上 25 69 1008
19 08:30 2 10km以上 24 69 1008
19 08:00 南西 2 10km以上 23 78 1008
19 07:30 3 10km以上 22 83 1008
19 07:00 南南東 2 10km以上 22 83 1008
19 06:30 南南東 2 10km以上 21 88 1008 地霧
19 06:00 南東 2 10km以上 19 94 1008 地霧
19 05:30 南東 2 10km以上 18 100 1009 地霧
19 05:00 南東 2 10km以上 17 94 1009 地霧
19 04:30 南東 2 10km以上 16 100 1009 地霧
19 04:00 東南東 1 10km以上 16 100 1009
19 03:30 東南東 1 10km以上 17 100 1009
19 03:00 南東 1 10km以上 18 94 1009
19 02:30 南南東 1 10km以上 18 94 1009
19 02:00 2 10km以上 18 94 1009
19 01:30 2 10km以上 18 94 1009
19 01:00 南南東 2 10km以上 18 94 1009
19 00:30 3 10km以上 19 94 1009
19 00:00 2 10km以上 19 94 1010
18 23:30 2 10km以上 19 94 1010
18 23:00 南南東 2 10km以上 19 94 1010
18 22:30 南南東 3 10km以上 19 94 1010
18 22:00 南南東 2 10km以上 19 94 1010
18 20:30 2 10km以上 20 94 1010
18 20:00 南南東 3 10km以上 21 88 1010
18 19:30 3 10km以上 21 83 1010
18 17:30 南東 5 10km以上 23 83 1010
18 17:00 南東 4 10km以上 23 78 1010
18 16:30 南東 5 10km以上 23 78 1010
18 16:00 南東 5 10km以上 24 74 1010
18 15:30 南東 6 10km以上 24 74 1010
18 15:00 南東 6 10km以上 24 74 1010
18 14:30 南東 6 10km以上 24 74 1010
18 14:00 南東 6 10km以上 24 74 1011
18 13:30 南東 6 10km以上 24 69 1011
18 13:00 南東 7 10km以上 25 69 1011
18 12:30 南東 6 10km以上 24 69 1011
18 12:00 南南東 6 10km以上 25 69 1012
18 11:30 南南東 6 10km以上 24 69 1012
18 11:00 南南東 6 10km以上 25 65 1012
18 10:30 南東 6 10km以上 25 61 1012
18 10:00 南東 6 10km以上 24 65 1013
18 09:30 南南東 6 10km以上 24 65 1013
18 09:00 南南東 6 10km以上 24 65 1013
18 08:30 南東 6 10km以上 25 61 1013
18 08:00 南東 6 10km以上 23 65 1013
18 07:30 南東 5 10km以上 22 73 1013
18 07:00 南東 5 10km以上 23 69 1013
18 06:30 南東 5 10km以上 22 73 1013
18 06:00 南東 4 10km以上 20 83 1013
18 05:30 東南東 4 10km以上 19 83 1013
17 22:00 東南東 2 10km以上 18 88 1013
17 21:30 東南東 2 10km以上 19 83 1013
17 21:00 南東 2 10km以上 20 78 1013
17 20:30 南南東 3 10km以上 20 78 1012
17 20:00 南東 4 10km以上 20 78 1012
17 19:00 南東 5 10km以上 20 73 1011
17 18:30 南東 5 10km以上 21 69 1010
17 18:00 南東 5 10km以上 22 60 1010
17 17:30 南東 6 10km以上 22 60 1009
17 17:00 東南東 6 10km以上 23 53 1009
17 16:30 南東 6 10km以上 24 54 1009
17 16:00 東南東 6 10km以上 25 50 1009
17 15:30 不定 1 10km以上 27 39 1009
RJAA 190530Z 19006KT 150V230 9999 FEW030 SCT040 28/16 Q1004 NOSIG RMK 1CU030 3CU040 A2966
RJAA 190500Z 24006KT 210V280 9999 FEW030 SCT040 27/17 Q1005 BECMG 18006KT RMK 1CU030 3CU040 A2968
RJAA 190430Z 19008KT 140V250 9999 FEW040 27/16 Q1005 NOSIG RMK 2CU040 A2968
RJAA 190400Z 22005KT 160V260 9999 FEW030 SCT040 27/17 Q1005 NOSIG RMK 1CU030 3CU040 A2969
RJAA 190330Z 22008KT 170V260 9999 FEW030 SCT040 27/17 Q1006 NOSIG RMK 1CU030 4CU040 A2971
RJAA 190300Z 20008KT 140V270 9999 FEW030 SCT040 27/18 Q1006 NOSIG RMK 1CU030 4CU040 A2972
RJAA 190230Z 21007KT 160V260 9999 FEW030 SCT040 26/17 Q1007 NOSIG RMK 1CU030 4CU040 A2974
RJAA 190200Z 23006KT 180V290 9999 FEW020 SCT030 BKN/// 26/19 Q1007 NOSIG RMK 1CU020 4CU030 A2975
RJAA 190130Z 25006KT 200V290 9999 FEW020 BKN030 BKN/// 26/20 Q1007 BECMG 22006KT
RJAA 190100Z 20005KT 140V270 9999 FEW020 BKN030 26/19 Q1007 NOSIG RMK 1CU020 6CU030 A2976
RJAA 190030Z 20005KT 120V230 9999 FEW015 BKN025 BKN/// 25/19 Q1008 NOSIG
RJAA 190000Z 19005KT 110V230 9999 FEW015 BKN020 BKN/// 25/19 Q1008 NOSIG RMK 1CU015 5CU020 A2977
RJAA 182330Z 19004KT 120V280 9999 FEW015 SCT020 BKN/// 24/18 Q1008 NOSIG
RJAA 182300Z 22004KT 110V270 9999 FEW020 BKN/// 23/19 Q1008 NOSIG
RJAA 182230Z 19005KT 160V240 9999 FEW030 BKN/// 22/19 Q1008 NOSIG
RJAA 182200Z 15004KT 130V200 9999 FEW030 BKN/// 22/19 Q1008 NOSIG RMK 1CU030 A2979
RJAA 182130Z 15003KT 9999 MIFG FEW030 BKN/// 21/19 Q1008 NOSIG RMK 1CU030 A2979
RJAA 182100Z 14003KT 9999 MIFG FEW030 BKN/// 19/18 Q1008 NOSIG
RJAA 182030Z 13003KT 9999 MIFG FEW030 SCT/// 18/18 Q1009 NOSIG
RJAA 182000Z 13003KT 9999 MIFG FEW030 17/16 Q1009 NOSIG RMK 1CU030 A2980
RJAA 181930Z 14003KT 9999 MIFG FEW030 16/16 Q1009 NOSIG RMK 1CU030 A2980
RJAA 181900Z 12002KT 9999 FEW030 SCT/// 16/16 Q1009 NOSIG RMK 1CU030 A2981
RJAA 181830Z 11002KT 9999 FEW030 BKN/// 17/17 Q1009 NOSIG
RJAA 181800Z 13001KT 9999 FEW030 BKN/// 18/17 Q1009 NOSIG
RJAA 181730Z 16002KT 9999 FEW030 BKN/// 18/17 Q1009 NOSIG
RJAA 181700Z 19004KT 9999 FEW030 SCT/// 18/17 Q1009 NOSIG RMK 1CU030 A2980
RJAA 181630Z 18004KT 9999 FEW030 SCT/// 18/17 Q1009 NOSIG
RJAA 181600Z 16004KT 9999 FEW030 SCT/// 18/17 Q1009 NOSIG RMK 1CU030 A2982
RJAA 181530Z 17005KT 9999 FEW030 SCT/// 19/18 Q1009 NOSIG
RJAA 181500Z 17004KT 9999 FEW030 SCT/// 19/18 Q1010 NOSIG
RJAA 181430Z 17003KT 9999 FEW030 SCT/// 19/18 Q1010 NOSIG
RJAA 181400Z 16004KT 9999 FEW030 SCT/// 19/18 Q1010 NOSIG RMK 1CU030 A2984
RJAA 181330Z 16005KT 9999 FEW030 19/18 Q1010 NOSIG RMK 1CU030 A2985
RJAA 181300Z 16004KT 9999 FEW030 SCT/// 19/18 Q1010 NOSIG RMK 1CU030 A2985
RJAA 181130Z 17004KT 9999 FEW030 BKN/// 20/19 Q1010 NOSIG
RJAA 181100Z 16005KT 9999 FEW030 BKN/// 21/19 Q1010 NOSIG
RJAA 181030Z 17005KT 9999 FEW030 BKN/// 21/18 Q1010 NOSIG
RJAA 180830Z 14009KT 9999 FEW020 OVC/// 23/20 Q1010 NOSIG
RJAA 180800Z 14008KT 9999 FEW020 OVC/// 23/19 Q1010 NOSIG RMK 1CU020 A2984
RJAA 180730Z 14010KT 9999 FEW020 OVC/// 23/19 Q1010 NOSIG RMK 1CU020 A2984
RJAA 180700Z 14010KT 9999 FEW020 OVC/// 24/19 Q1010 NOSIG
RJAA 180630Z 14012KT 110V170 9999 FEW020 BKN/// 24/19 Q1010 NOSIG
RJAA 180600Z 13011KT 9999 FEW020 SCT070 BKN/// 24/19 Q1010 NOSIG
RJAA 180530Z 14011KT 110V180 9999 FEW020 SCT070 BKN/// 24/19 Q1010 NOSIG
RJAA 180500Z 14011KT 9999 FEW025 SCT080 BKN/// 24/19 Q1011 NOSIG
RJAA 180430Z 14012KT 9999 SCT025 BKN/// 24/18 Q1011 NOSIG RMK 4CU025 A2987
RJAA 180400Z 13013KT 100V160 9999 SCT025 BKN/// 25/19 Q1011 NOSIG
RJAA 180330Z 14012KT 080V180 9999 SCT025 24/18 Q1011 NOSIG RMK 3CU025 A2987
RJAA 180300Z 15011KT 110V180 9999 SCT025 25/19 Q1012 NOSIG RMK 3CU025 A2988
RJAA 180230Z 15011KT 120V180 9999 SCT025 24/18 Q1012 NOSIG RMK 3CU025 A2990
RJAA 180200Z 16012KT 9999 FEW025 25/18 Q1012 NOSIG RMK 2CU025 A2990
RJAA 180130Z 14011KT 9999 FEW025 25/17 Q1012 NOSIG RMK 2CU025 A2991
RJAA 180100Z 14011KT 110V180 9999 FEW030 24/17 Q1013 NOSIG RMK 2CU030 A2992
RJAA 180030Z 16012KT 9999 FEW030 BKN/// 24/17 Q1013 NOSIG
RJAA 180000Z 15011KT 9999 FEW030 SCT070 BKN/// 24/17 Q1013 NOSIG
RJAA 172330Z 14012KT 120V190 9999 FEW030 BKN070 BKN/// 25/17 Q1013 NOSIG
RJAA 172300Z 14012KT 9999 FEW025 BKN070 BKN/// 23/16 Q1013 NOSIG
RJAA 172230Z 14010KT 9999 FEW025 BKN070 22/17 Q1013 NOSIG RMK 1CU025 7AC070 A2994
RJAA 172200Z 14009KT 110V180 9999 FEW030 SCT070 23/17 Q1013 NOSIG RMK 1CU030 3AC070 A2994
RJAA 172130Z 14010KT 9999 FEW020 SCT/// 22/17 Q1013 NOSIG
RJAA 172100Z 13007KT 9999 FEW020 SCT/// 20/17 Q1013 NOSIG RMK 1CU020 A2993
RJAA 172030Z 12007KT 9999 FEW020 BKN070 19/16 Q1013 NOSIG RMK 1CU020 7AC070 A2994
RJAA 171300Z 11003KT 080V160 9999 FEW030 18/16 Q1013 NOSIG RMK 1CU030 A2993
RJAA 171230Z 12004KT 080V160 9999 FEW030 19/16 Q1013 NOSIG RMK 1CU030 A2992
RJAA 171200Z 14004KT 9999 FEW030 SCT090 20/16 Q1013 NOSIG RMK 1CU030 3AC090 A2991
RJAA 171130Z 15005KT 9999 FEW030 BKN090 20/16 Q1012 NOSIG RMK 1CU030 7AC090 A2990
RJAA 171100Z 14008KT 9999 FEW030 BKN090 BKN/// 20/16 Q1012 NOSIG
RJAA 171000Z 14009KT 9999 FEW030 SCT090 BKN/// 20/15 Q1011 NOSIG
RJAA 170930Z 13010KT 9999 FEW030 BKN090 BKN/// 21/15 Q1010 NOSIG
RJAA 170900Z 13010KT 9999 FEW030 BKN090 BKN/// 22/14 Q1010 NOSIG RMK 1CU030 5AC090 A2983
RJAA 170830Z 14012KT 9999 FEW030 BKN/// 22/14 Q1009 NOSIG
RJAA 170800Z 12012KT 9999 FEW020 BKN/// 23/13 Q1009 NOSIG
RJAA 170730Z 13011KT 9999 FEW020 BKN/// 24/14 Q1009 NOSIG
RJAA 170700Z 12011KT 070V150 9999 FEW030 BKN/// 25/14 Q1009 NOSIG RMK 1CU030 A2980
RJAA 170630Z VRB02KT 9999 FEW030 SCT/// 27/12 Q1009 BECMG TL0700 14010KT